Time;durP1;ratioP1;P1;durP2;ratioP2;P2;SDS_P1;SDS_P2;PMS_P1;PMS_P2;Temp;Humidity;BMP_temperature;BMP_pressure;BME280_temperature;BME280_humidity;BME280_pressure;Samples;Min_cycle;Max_cycle;Signal;HPM_P1;HPM_P2
2023/02/23 00:01:16;;;;;;;5.22;1.40;;;23.80;62.40;;;;;;5130574;23;20048;-46
2023/02/23 00:03:39;;;;;;;4.65;1.15;;;23.90;63.00;;;;;;5142537;23;20021;-43
2023/02/23 00:06:02;;;;;;;2.63;0.98;;;23.80;62.40;;;;;;5139875;23;20099;-48
2023/02/23 00:08:27;;;;;;;2.83;1.27;;;23.90;62.40;;;;;;5132478;23;20062;-44
2023/02/23 00:10:57;;;;;;;4.85;1.35;;;23.90;62.40;;;;;;5134081;23;20095;-44
2023/02/23 00:13:19;;;;;;;4.95;1.92;;;23.90;62.40;;;;;;5141661;23;20016;-51
2023/02/23 00:15:41;;;;;;;5.03;1.42;;;23.90;62.10;;;;;;5141618;23;20409;-47
2023/02/23 00:18:04;;;;;;;6.63;1.63;;;23.90;61.90;;;;;;5140008;23;20042;-50
2023/02/23 00:20:27;;;;;;;4.82;1.45;;;23.90;62.30;;;;;;5140870;23;20020;-47
2023/02/23 00:22:52;;;;;;;8.88;1.35;;;23.90;62.30;;;;;;5138158;23;20596;-46
2023/02/23 00:25:17;;;;;;;2.72;1.45;;;23.90;62.30;;;;;;5140854;23;20329;-48
2023/02/23 00:27:44;;;;;;;8.10;1.20;;;23.90;62.20;;;;;;5138858;23;20025;-45
2023/02/23 00:30:07;;;;;;;5.75;1.13;;;23.90;62.20;;;;;;5131059;23;20099;-46
2023/02/23 00:32:30;;;;;;;3.97;0.98;;;23.90;62.10;;;;;;5131767;23;20016;-49
2023/02/23 00:34:52;;;;;;;4.90;0.90;;;23.90;62.10;;;;;;5133540;23;20094;-49
2023/02/23 00:37:15;;;;;;;3.38;1.00;;;23.90;62.00;;;;;;5141131;23;20580;-49
2023/02/23 00:39:38;;;;;;;3.65;0.63;;;23.90;62.00;;;;;;5140247;23;20020;-47
2023/02/23 00:42:02;;;;;;;2.33;0.80;;;23.90;61.90;;;;;;5138996;23;20051;-45
2023/02/23 00:44:24;;;;;;;3.17;0.85;;;23.90;61.80;;;;;;5132854;23;20386;-49
2023/02/23 00:46:50;;;;;;;1.83;0.65;;;23.90;61.80;;;;;;5141980;23;20401;-45
2023/02/23 00:49:17;;;;;;;3.17;0.93;;;23.90;61.70;;;;;;5141630;23;20442;-49
2023/02/23 00:51:40;;;;;;;3.58;0.90;;;24.00;61.70;;;;;;5142211;23;20078;-46
2023/02/23 00:54:03;;;;;;;1.70;0.80;;;24.00;61.70;;;;;;5140885;23;20017;-48
2023/02/23 00:56:27;;;;;;;2.57;0.80;;;24.00;61.60;;;;;;5142264;23;20027;-50
2023/02/23 00:58:49;;;;;;;2.55;0.80;;;24.00;61.50;;;;;;5134955;23;20016;-46
2023/02/23 01:01:13;;;;;;;3.15;1.23;;;24.00;61.50;;;;;;5143624;23;20103;-48
2023/02/23 01:03:36;;;;;;;;;;;24.00;61.50;;;;;;5141929;23;20092;-46
2023/02/23 01:06:04;;;;;;;2.03;0.68;;;24.00;61.50;;;;;;5143238;23;19912;-46
2023/02/23 01:08:29;;;;;;;2.30;0.80;;;24.00;61.40;;;;;;5141977;23;20028;-50
2023/02/23 01:10:52;;;;;;;2.90;0.90;;;24.00;61.30;;;;;;5134158;23;20017;-46
2023/02/23 01:13:16;;;;;;;3.50;1.07;;;24.00;61.30;;;;;;5133013;23;20563;-48
2023/02/23 01:15:43;;;;;;;2.70;0.93;;;24.00;61.30;;;;;;5143533;23;20096;-51
2023/02/23 01:18:06;;;;;;;2.13;0.85;;;24.00;61.20;;;;;;5141870;23;20021;-45
2023/02/23 01:20:28;;;;;;;2.65;0.93;;;24.00;61.70;;;;;;5141519;23;20103;-46
2023/02/23 01:22:51;;;;;;;3.72;0.95;;;24.10;62.60;;;;;;5142187;23;20020;-48
2023/02/23 01:25:15;;;;;;;2.58;0.98;;;24.20;62.70;;;;;;5142264;23;20024;-48
2023/02/23 01:27:38;;;;;;;;;;;24.20;62.50;;;;;;5141835;23;20470;-46
2023/02/23 01:30:00;;;;;;;3.58;0.85;;;24.20;62.60;;;;;;5140948;23;19908;-46
2023/02/23 01:32:23;;;;;;;2.13;0.80;;;24.20;62.80;;;;;;5142446;23;20016;-48
2023/02/23 01:34:45;;;;;;;3.45;1.00;;;24.30;62.90;;;;;;5143070;23;20032;-43
2023/02/23 01:37:07;;;;;;;3.33;1.20;;;24.40;63.00;;;;;;5142359;23;20016;-50
2023/02/23 01:39:31;;;;;;;5.28;0.93;;;24.40;62.90;;;;;;5141645;23;20577;-55
2023/02/23 01:41:55;;;;;;;3.42;1.05;;;24.40;62.70;;;;;;5142640;23;20017;-49
2023/02/23 01:44:20;;;;;;;5.20;0.95;;;24.40;62.80;;;;;;5140711;23;20094;-55
2023/02/23 01:46:45;;;;;;;5.25;1.23;;;24.40;62.70;;;;;;5139504;23;20355;-50
2023/02/23 01:49:14;;;;;;;3.08;1.00;;;24.40;62.60;;;;;;5140235;23;20036;-53
2023/02/23 01:51:44;;;;;;;3.22;1.27;;;24.50;62.60;;;;;;5139090;23;20102;-54
2023/02/23 01:54:14;;;;;;;2.38;0.73;;;24.50;62.60;;;;;;5130652;23;20107;-49
2023/02/23 01:56:43;;;;;;;4.68;1.00;;;24.50;62.50;;;;;;5133270;23;20012;-51
2023/02/23 01:59:07;;;;;;;3.13;1.00;;;24.50;62.50;;;;;;5141171;23;20095;-52
2023/02/23 02:01:30;;;;;;;8.65;1.40;;;24.50;62.40;;;;;;5140510;23;20024;-52
2023/02/23 02:04:05;;;;;;;4.17;1.07;;;24.60;62.40;;;;;;5140901;23;20131;-52
2023/02/23 02:06:29;;;;;;;4.43;1.00;;;24.60;62.40;;;;;;5140338;23;20012;-45
2023/02/23 02:08:54;;;;;;;3.00;0.70;;;24.60;62.50;;;;;;5138363;23;20028;-48
2023/02/23 02:11:35;;;;;;;3.08;1.17;;;24.60;62.70;;;;;;5133677;23;20052;-50
2023/02/23 02:14:01;;;;;;;3.83;0.70;;;24.60;62.90;;;;;;5141023;23;20404;-48
2023/02/23 02:16:34;;;;;;;3.88;1.10;;;24.60;61.10;;;;;;5140657;23;20478;-47
2023/02/23 02:19:43;;;;;;;2.65;0.80;;;24.50;60.80;;;;;;5128854;23;20043;-46
2023/02/23 02:22:47;;;;;;;2.88;0.90;;;24.50;60.90;;;;;;5140540;23;20021;-47
2023/02/23 02:25:30;;;;;;;1.80;0.70;;;24.40;60.90;;;;;;5140102;23;20371;-47
2023/02/23 02:28:29;;;;;;;2.47;0.90;;;24.40;61.00;;;;;;5139474;23;20362;-46
2023/02/23 02:31:29;;;;;;;1.90;0.73;;;24.40;61.00;;;;;;5138316;23;20337;-46
2023/02/23 02:34:18;;;;;;;3.50;1.05;;;24.40;61.20;;;;;;5139115;23;20017;-45
2023/02/23 02:37:05;;;;;;;2.00;0.77;;;24.30;61.10;;;;;;5139551;23;20335;-46
2023/02/23 02:39:35;;;;;;;3.10;1.00;;;24.30;61.10;;;;;;5139466;23;20025;-51
2023/02/23 02:42:42;;;;;;;4.00;1.10;;;24.30;61.50;;;;;;5139717;23;20230;-51
2023/02/23 02:45:39;;;;;;;4.07;1.45;;;24.40;62.00;;;;;;5037037;23;20461;-53
2023/02/23 02:48:09;;;;;;;5.40;1.15;;;24.40;63.40;;;;;;5141753;22;20429;-47
2023/02/23 02:50:45;;;;;;;5.63;1.88;;;24.50;62.70;;;;;;5139449;23;20501;-49
2023/02/23 02:53:10;;;;;;;4.03;1.33;;;24.50;62.50;;;;;;5131628;23;20021;-46
2023/02/23 02:55:37;;;;;;;3.88;1.25;;;24.60;62.40;;;;;;5139628;23;20042;-47
2023/02/23 02:58:01;;;;;;;4.65;1.10;;;24.60;62.30;;;;;;5140222;23;20407;-53
2023/02/23 04:18:33;;;;;;;8.10;1.20;;;25.30;60.30;;;;;;5137807;22;20023;-47
2023/02/23 04:20:57;;;;;;;2.75;0.93;;;25.30;60.30;;;;;;5136339;23;20017;-50
2023/02/23 04:23:21;;;;;;;3.17;1.17;;;25.20;60.60;;;;;;5135646;23;20017;-47
2023/02/23 04:25:44;;;;;;;4.55;0.98;;;25.20;60.10;;;;;;5131455;23;20017;-52
2023/02/23 04:28:07;;;;;;;3.83;1.20;;;25.20;60.20;;;;;;5134257;23;20579;-50
2023/02/23 04:30:29;;;;;;;2.95;1.13;;;25.20;59.80;;;;;;5134265;23;20012;-47
2023/02/23 04:32:55;;;;;;;3.90;1.23;;;25.20;60.20;;;;;;5127183;23;20020;-45
2023/02/23 04:35:18;;;;;;;4.20;1.00;;;25.20;60.20;;;;;;5135150;23;20103;-48
2023/02/23 04:37:40;;;;;;;3.92;1.25;;;25.20;60.30;;;;;;5128308;23;20107;-46
2023/02/23 04:40:03;;;;;;;2.78;0.93;;;25.20;60.40;;;;;;5126841;23;20023;-52
2023/02/23 04:42:26;;;;;;;2.13;1.03;;;25.20;60.50;;;;;;5128790;23;20517;-44
2023/02/23 04:44:48;;;;;;;1.85;0.90;;;25.20;60.50;;;;;;5127694;23;20051;-45
2023/02/23 04:47:13;;;;;;;3.50;1.20;;;25.20;60.60;;;;;;5127210;23;20378;-49
2023/02/23 04:49:36;;;;;;;3.28;1.10;;;25.20;60.60;;;;;;5116071;23;20522;-53
2023/02/23 04:51:59;;;;;;;3.30;1.10;;;25.20;60.60;;;;;;5128264;23;20016;-51
2023/02/23 04:54:21;;;;;;;4.28;0.93;;;25.20;60.80;;;;;;5128240;23;20023;-46
2023/02/23 04:56:44;;;;;;;3.58;1.00;;;25.20;60.80;;;;;;5120651;23;20013;-46
2023/02/23 04:59:06;;;;;;;3.88;1.00;;;25.20;61.00;;;;;;5127712;23;20027;-45
2023/02/23 05:01:31;;;;;;;4.35;1.08;;;25.30;60.90;;;;;;5131820;23;20561;-46
2023/02/23 05:03:54;;;;;;;3.40;1.00;;;25.40;60.90;;;;;;5131079;23;20063;-51
2023/02/23 05:06:17;;;;;;;3.55;0.88;;;25.40;60.80;;;;;;5131953;23;20225;-48
2023/02/23 05:08:40;;;;;;;12.75;1.05;;;25.40;61.10;;;;;;5134755;23;20063;-49
2023/02/23 05:11:02;;;;;;;3.17;0.73;;;25.40;60.60;;;;;;5131958;23;20533;-52
2023/02/23 05:13:25;;;;;;;3.20;0.90;;;25.40;59.80;;;;;;5132922;23;20522;-47
2023/02/23 05:15:47;;;;;;;0.90;0.55;;;25.40;59.60;;;;;;5124750;23;20457;-48
2023/02/23 05:18:10;;;;;;;2.65;1.00;;;25.40;59.60;;;;;;5131776;23;20019;-50
2023/02/23 05:20:32;;;;;;;6.40;1.20;;;25.40;59.70;;;;;;5132702;23;20821;-54
2023/02/23 05:22:55;;;;;;;5.10;1.40;;;25.40;60.30;;;;;;5132079;23;20044;-51
2023/02/23 05:25:17;;;;;;;4.93;1.10;;;25.40;60.60;;;;;;5132678;23;20028;-56
2023/02/23 05:27:40;;;;;;;15.02;1.13;;;25.40;61.10;;;;;;5132351;23;20473;-49
2023/02/23 05:30:04;;;;;;;7.68;1.35;;;25.50;61.30;;;;;;5132109;23;20016;-49
2023/02/23 05:32:26;;;;;;;2.15;0.80;;;25.50;61.80;;;;;;5124554;23;20064;-49
2023/02/23 05:34:49;;;;;;;3.85;1.10;;;25.60;62.00;;;;;;5132761;23;20024;-49
2023/02/23 05:37:12;;;;;;;3.95;1.25;;;25.60;62.00;;;;;;5132047;23;20075;-50
2023/02/23 05:39:34;;;;;;;4.32;1.70;;;25.70;62.00;;;;;;5131849;23;20476;-47
2023/02/23 05:41:57;;;;;;;3.67;1.42;;;25.70;61.90;;;;;;5133797;23;20020;-43
2023/02/23 05:44:19;;;;;;;6.68;1.10;;;25.70;62.10;;;;;;5134555;23;20016;-50
2023/02/23 05:46:41;;;;;;;6.43;1.15;;;25.70;62.00;;;;;;5136851;23;20059;-51
2023/02/23 05:49:04;;;;;;;4.85;0.77;;;25.70;61.90;;;;;;5140675;23;20024;-48
2023/02/23 05:51:28;;;;;;;4.78;1.30;;;25.80;61.80;;;;;;5131100;23;20012;-48
2023/02/23 05:53:50;;;;;;;;;;;25.80;61.70;;;;;;5143049;23;20024;-48
2023/02/23 05:56:21;;;;;;;7.03;1.10;;;25.90;61.20;;;;;;5143399;23;20250;-47
2023/02/23 05:58:43;;;;;;;6.45;1.23;;;26.00;60.30;;;;;;5129548;23;20474;-47
2023/02/23 06:01:06;;;;;;;3.65;1.13;;;26.10;59.50;;;;;;5140820;23;20620;-50
2023/02/23 06:03:28;;;;;;;2.47;0.98;;;26.10;59.10;;;;;;5140994;23;20020;-49
2023/02/23 06:05:52;;;;;;;6.85;1.20;;;26.20;59.00;;;;;;5142482;23;20027;-47
2023/02/23 06:08:15;;;;;;;3.20;1.20;;;26.30;58.90;;;;;;5141350;23;20024;-47
2023/02/23 06:10:37;;;;;;;3.90;1.02;;;26.40;59.50;;;;;;5138775;23;20012;-46
2023/02/23 06:13:00;;;;;;;3.65;0.80;;;26.40;59.40;;;;;;5142080;23;20103;-48
2023/02/23 06:15:22;;;;;;;2.97;0.80;;;26.50;59.60;;;;;;5136303;23;20051;-50
2023/02/23 06:17:45;;;;;;;2.20;0.70;;;26.60;59.40;;;;;;5136386;23;20012;-44
2023/02/23 06:20:07;;;;;;;4.00;1.05;;;26.60;59.30;;;;;;5134938;23;20482;-46
2023/02/23 06:22:30;;;;;;;2.47;0.87;;;26.70;59.30;;;;;;5136301;23;20016;-45
2023/02/23 06:24:52;;;;;;;3.95;1.10;;;26.70;59.30;;;;;;5134487;23;20342;-51
2023/02/23 06:27:15;;;;;;;3.30;1.00;;;26.80;59.20;;;;;;5136104;23;20044;-54
2023/02/23 06:29:37;;;;;;;2.58;0.93;;;26.90;58.90;;;;;;5137067;23;20024;-53
2023/02/23 06:32:00;;;;;;;3.25;1.70;;;26.80;58.40;;;;;;5135572;23;20027;-53
2023/02/23 06:34:22;;;;;;;4.95;2.25;;;26.80;58.10;;;;;;5135412;23;20063;-54
2023/02/23 06:36:45;;;;;;;8.60;1.80;;;26.90;58.20;;;;;;5138184;23;20520;-49
2023/02/23 06:39:08;;;;;;;4.53;1.70;;;26.90;58.10;;;;;;5138539;23;20092;-51
2023/02/23 06:41:31;;;;;;;;;;;26.90;57.90;;;;;;5136609;23;20108;-49
2023/02/23 06:43:54;;;;;;;8.15;1.25;;;26.90;57.90;;;;;;5136036;23;19907;-53
2023/02/23 06:46:17;;;;;;;2.70;0.95;;;27.00;57.80;;;;;;5135085;23;20359;-49
2023/02/23 06:48:40;;;;;;;3.60;1.20;;;27.00;57.70;;;;;;5136641;23;20035;-52
2023/02/23 06:51:02;;;;;;;3.50;1.17;;;27.00;57.60;;;;;;5137332;23;20232;-52
2023/02/23 06:53:24;;;;;;;2.17;0.80;;;27.10;57.60;;;;;;5136769;23;20258;-52
2023/02/23 06:55:47;;;;;;;1.55;0.70;;;27.10;57.60;;;;;;5137020;23;20039;-50
2023/02/23 06:58:09;;;;;;;2.40;1.15;;;27.00;57.60;;;;;;5136692;23;20513;-52
2023/02/23 07:00:32;;;;;;;2.92;1.05;;;27.00;57.50;;;;;;5133819;23;20028;-49
2023/02/23 07:02:56;;;;;;;2.58;0.88;;;27.00;57.50;;;;;;5134183;23;20112;-51
2023/02/23 07:05:19;;;;;;;4.65;1.23;;;27.00;57.50;;;;;;5135321;23;20016;-53
2023/02/23 07:07:42;;;;;;;1.45;0.70;;;27.00;57.50;;;;;;5134382;23;20043;-55
2023/02/23 07:10:06;;;;;;;1.95;0.82;;;26.90;57.40;;;;;;5126208;23;20115;-49
2023/02/23 07:12:29;;;;;;;;;;;26.90;57.60;;;;;;5133773;23;20313;-50
2023/02/23 07:14:51;;;;;;;2.30;1.02;;;26.80;57.60;;;;;;5132291;23;19915;-48
2023/02/23 07:17:13;;;;;;;2.95;1.00;;;26.80;57.70;;;;;;5134590;23;20340;-54
2023/02/23 07:19:36;;;;;;;1.77;0.82;;;26.80;57.80;;;;;;5135235;23;20040;-52
2023/02/23 07:21:58;;;;;;;2.63;1.15;;;26.70;57.70;;;;;;5133898;23;20016;-50
2023/02/23 07:24:21;;;;;;;2.72;1.08;;;26.70;57.80;;;;;;5127650;23;20032;-55
2023/02/23 07:26:46;;;;;;;2.80;1.10;;;26.70;57.80;;;;;;5121997;23;20370;-53
2023/02/23 07:29:09;;;;;;;2.55;1.15;;;26.60;57.80;;;;;;5129538;23;20410;-51
2023/02/23 07:31:31;;;;;;;3.15;0.90;;;26.60;57.90;;;;;;5135867;23;20517;-48
2023/02/23 07:33:54;;;;;;;1.95;0.90;;;26.60;57.90;;;;;;5134995;23;20442;-52
2023/02/23 07:36:16;;;;;;;3.20;0.93;;;26.60;57.90;;;;;;5135254;23;20462;-55
2023/02/23 07:38:39;;;;;;;1.77;0.88;;;26.60;58.00;;;;;;5135606;23;20839;-51
2023/02/23 07:41:02;;;;;;;1.63;0.82;;;26.50;58.00;;;;;;5134595;23;20016;-48
2023/02/23 07:43:24;;;;;;;1.92;0.80;;;26.50;58.00;;;;;;5136236;23;20016;-48
2023/02/23 07:45:47;;;;;;;2.67;0.70;;;26.50;58.00;;;;;;5133388;23;20020;-53
2023/02/23 07:48:10;;;;;;;2.77;1.07;;;26.50;58.00;;;;;;5135279;23;20071;-52
2023/02/23 07:50:32;;;;;;;2.13;1.13;;;26.50;58.00;;;;;;5138173;23;20413;-48
2023/02/23 07:52:54;;;;;;;2.58;0.90;;;26.40;58.00;;;;;;5141903;23;20020;-50
2023/02/23 07:55:17;;;;;;;2.72;1.05;;;26.40;58.00;;;;;;5141552;23;20044;-52
2023/02/23 07:57:39;;;;;;;3.22;1.00;;;26.40;58.00;;;;;;5141756;23;20366;-49
2023/02/23 08:00:02;;;;;;;2.85;0.90;;;26.40;58.00;;;;;;5140394;23;20047;-49
2023/02/23 08:02:27;;;;;;;2.20;1.10;;;26.40;58.00;;;;;;5141884;23;20039;-49
2023/02/23 08:04:52;;;;;;;2.33;0.80;;;26.30;58.00;;;;;;5132493;23;20258;-51
2023/02/23 08:07:15;;;;;;;4.95;1.40;;;26.30;57.90;;;;;;5141367;23;20023;-50
2023/02/23 08:09:37;;;;;;;1.40;0.88;;;26.30;58.00;;;;;;5133537;23;20024;-51
2023/02/23 08:12:01;;;;;;;1.63;0.93;;;26.30;57.90;;;;;;5136116;23;20071;-51
2023/02/23 08:14:23;;;;;;;3.22;0.80;;;26.30;58.00;;;;;;5128394;23;20108;-48
2023/02/23 08:16:46;;;;;;;3.33;0.80;;;26.20;57.90;;;;;;5136384;23;20965;-51
2023/02/23 08:19:09;;;;;;;1.95;0.63;;;26.30;57.90;;;;;;5132512;23;20031;-49
2023/02/23 08:21:32;;;;;;;0.75;0.38;;;26.20;57.80;;;;;;5125909;23;20066;-47
2023/02/23 08:23:55;;;;;;;2.03;0.93;;;26.20;57.80;;;;;;5133906;23;20021;-50
2023/02/23 08:26:18;;;;;;;2.17;0.70;;;26.20;57.80;;;;;;5125357;23;20020;-50
2023/02/23 08:28:43;;;;;;;1.60;0.65;;;26.20;57.80;;;;;;5134193;23;20051;-47
2023/02/23 08:31:09;;;;;;;1.85;0.60;;;26.10;57.70;;;;;;5128005;23;20462;-48
2023/02/23 08:33:32;;;;;;;1.67;0.60;;;26.10;57.80;;;;;;5135809;23;20016;-52
2023/02/23 08:35:58;;;;;;;1.38;0.60;;;26.10;57.80;;;;;;5134172;23;20074;-51
2023/02/23 08:38:20;;;;;;;1.55;0.63;;;26.10;57.80;;;;;;5124496;23;20371;-49
2023/02/23 08:40:44;;;;;;;2.30;0.73;;;26.10;57.80;;;;;;5138574;23;20016;-53
2023/02/23 08:43:06;;;;;;;2.30;0.65;;;26.10;57.80;;;;;;5131347;23;20021;-52
2023/02/23 08:45:29;;;;;;;1.55;0.70;;;26.10;57.80;;;;;;5140471;23;20334;-50
2023/02/23 08:47:53;;;;;;;1.90;0.68;;;26.00;57.80;;;;;;5139638;23;20020;-52
2023/02/23 08:50:16;;;;;;;1.83;0.60;;;26.10;57.80;;;;;;5140227;23;20028;-50
2023/02/23 08:52:39;;;;;;;1.48;0.73;;;26.00;57.80;;;;;;5138677;23;20024;-55
2023/02/23 08:55:01;;;;;;;1.33;0.55;;;26.00;57.70;;;;;;5127003;23;20136;-47
2023/02/23 08:57:25;;;;;;;2.97;1.00;;;26.00;57.70;;;;;;5138013;23;20024;-47
2023/02/23 08:59:47;;;;;;;1.13;0.47;;;26.00;57.70;;;;;;5140642;23;20028;-51
2023/02/23 09:02:13;;;;;;;0.93;0.60;;;25.90;57.70;;;;;;5138988;23;20387;-53
2023/02/23 09:04:36;;;;;;;1.42;0.50;;;25.90;57.70;;;;;;5138132;23;20051;-51
2023/02/23 09:06:58;;;;;;;1.30;0.73;;;25.90;57.70;;;;;;5139973;23;20454;-52
2023/02/23 09:09:21;;;;;;;2.60;0.90;;;25.90;57.70;;;;;;5138706;23;20091;-51
2023/02/23 09:11:43;;;;;;;1.05;0.60;;;25.90;57.70;;;;;;5129196;23;20454;-49
2023/02/23 09:14:05;;;;;;;0.65;0.40;;;25.90;57.70;;;;;;5139843;23;20028;-53
2023/02/23 09:16:28;;;;;;;1.63;0.50;;;25.80;57.70;;;;;;5141257;23;20132;-51
2023/02/23 09:18:50;;;;;;;3.28;0.75;;;25.80;57.70;;;;;;5130866;23;20021;-50
2023/02/23 09:21:21;;;;;;;1.60;0.60;;;25.80;57.70;;;;;;5138808;23;20512;-51
2023/02/23 09:23:45;;;;;;;3.05;0.60;;;25.80;58.10;;;;;;5142377;23;20386;-46
2023/02/23 09:26:09;;;;;;;1.92;0.63;;;25.80;57.80;;;;;;5141575;23;20103;-52
2023/02/23 09:28:33;;;;;;;0.90;0.40;;;25.80;57.80;;;;;;5140736;23;20533;-49
2023/02/23 09:30:56;;;;;;;2.00;0.80;;;25.80;57.80;;;;;;5139204;23;20018;-51
2023/02/23 09:33:18;;;;;;;2.78;0.93;;;25.70;57.80;;;;;;5138380;23;20381;-51
2023/02/23 09:35:41;;;;;;;1.13;0.50;;;25.70;57.90;;;;;;5125277;23;20036;-52
2023/02/23 09:38:06;;;;;;;2.05;0.90;;;25.80;58.00;;;;;;5121714;23;20027;-51
2023/02/23 09:40:52;;;;;;;1.70;0.65;;;25.70;57.80;;;;;;5135839;23;20406;-52
2023/02/23 09:43:44;;;;;;;1.25;0.63;;;25.70;57.90;;;;;;5132461;23;20023;-50
2023/02/23 09:46:28;;;;;;;1.65;0.70;;;25.70;57.90;;;;;;5125466;23;20502;-48
2023/02/23 09:48:51;;;;;;;1.23;0.63;;;25.70;57.90;;;;;;5125025;23;20029;-52
2023/02/23 09:51:19;;;;;;;1.35;0.60;;;25.70;57.90;;;;;;5132442;23;20418;-51
2023/02/23 09:53:53;;;;;;;2.30;0.65;;;25.60;57.90;;;;;;5134778;23;20020;-51
2023/02/23 09:56:30;;;;;;;1.23;0.73;;;25.70;58.00;;;;;;5134669;23;20017;-51
2023/02/23 09:58:53;;;;;;;1.55;0.50;;;25.60;57.80;;;;;;5133023;23;20360;-50
2023/02/23 10:01:27;;;;;;;1.13;0.52;;;25.60;57.90;;;;;;5133710;23;20446;-48
2023/02/23 10:04:09;;;;;;;;;;;25.60;57.80;;;;;;5132430;23;20428;-48
2023/02/23 10:06:32;;;;;;;1.08;0.50;;;25.60;57.90;;;;;;5124565;23;19908;-50
2023/02/23 10:09:16;;;;;;;0.57;0.43;;;25.60;57.80;;;;;;5133928;23;20024;-50
2023/02/23 10:11:55;;;;;;;0.68;0.60;;;25.60;57.80;;;;;;5132361;23;20020;-51
2023/02/23 10:14:52;;;;;;;1.10;0.70;;;25.60;58.40;;;;;;5133428;23;20024;-49
2023/02/23 10:17:38;;;;;;;1.45;0.63;;;25.60;57.80;;;;;;5133736;23;20420;-53
2023/02/23 10:20:26;;;;;;;1.48;0.52;;;25.50;57.70;;;;;;5132464;23;20017;-50
2023/02/23 10:22:50;;;;;;;1.90;0.60;;;25.50;57.70;;;;;;5132798;23;20032;-52
2023/02/23 10:25:14;;;;;;;;;;;25.50;57.80;;;;;;5133303;23;20021;-52
2023/02/23 10:27:45;;;;;;;0.83;0.60;;;25.50;58.00;;;;;;5133314;23;19908;-51
2023/02/23 10:30:18;;;;;;;1.95;0.65;;;25.40;57.70;;;;;;5126879;23;20099;-49
2023/02/23 10:33:00;;;;;;;1.27;0.73;;;25.40;57.80;;;;;;5132232;23;20464;-48
2023/02/23 10:35:23;;;;;;;1.85;0.98;;;25.40;57.80;;;;;;5124212;23;20329;-53
2023/02/23 10:37:47;;;;;;;1.40;0.80;;;25.40;57.90;;;;;;5122666;23;20066;-51
2023/02/23 10:40:22;;;;;;;1.02;0.70;;;25.40;58.00;;;;;;5136845;23;20413;-51
2023/02/23 10:42:44;;;;;;;1.73;0.90;;;25.40;58.00;;;;;;5137934;23;20078;-49
2023/02/23 10:45:18;;;;;;;1.95;1.08;;;25.40;58.00;;;;;;5138940;23;20055;-51
2023/02/23 10:47:41;;;;;;;2.10;0.98;;;25.40;58.00;;;;;;5129588;23;20099;-52
2023/02/23 10:50:05;;;;;;;2.55;1.10;;;25.40;58.00;;;;;;5139424;23;20506;-46
2023/02/23 10:52:40;;;;;;;1.77;0.70;;;25.30;57.90;;;;;;5141396;23;20024;-49
2023/02/23 10:55:06;;;;;;;1.63;0.73;;;25.30;57.90;;;;;;5139414;23;20035;-51
2023/02/23 10:57:38;;;;;;;1.90;1.00;;;25.30;57.90;;;;;;5139895;23;20032;-49
2023/02/23 11:00:00;;;;;;;1.88;1.00;;;25.30;58.00;;;;;;5132904;23;20454;-51
2023/02/23 11:02:25;;;;;;;1.58;0.82;;;25.30;58.00;;;;;;5138719;23;20016;-51
2023/02/23 11:04:55;;;;;;;1.77;0.70;;;25.30;57.90;;;;;;5139988;23;20048;-51
2023/02/23 11:07:28;;;;;;;1.50;0.85;;;25.30;58.00;;;;;;5129356;23;20016;-52
2023/02/23 11:09:51;;;;;;;1.92;1.00;;;25.20;57.80;;;;;;5129616;23;20029;-48
2023/02/23 11:12:42;;;;;;;1.77;0.93;;;25.20;57.80;;;;;;5133004;23;20044;-46
2023/02/23 11:15:24;;;;;;;3.97;1.48;;;25.20;57.90;;;;;;5136701;23;20453;-54
2023/02/23 11:17:59;;;;;;;9.43;1.63;;;25.20;57.90;;;;;;5137591;23;20024;-54
2023/02/23 11:20:24;;;;;;;;;;;25.20;58.20;;;;;;5138492;23;20446;-58
2023/02/23 11:22:47;;;;;;;7.00;1.10;;;25.30;58.50;;;;;;5138376;23;19914;-51
2023/02/23 11:25:26;;;;;;;2.15;1.10;;;25.30;58.40;;;;;;5140407;23;20395;-52
2023/02/23 11:27:50;;;;;;;2.35;1.13;;;25.30;58.20;;;;;;5138472;23;20024;-52
2023/02/23 11:30:12;;;;;;;;;;;25.30;58.00;;;;;;5140733;23;20458;-52
2023/02/23 11:32:41;;;;;;;2.45;1.00;;;25.30;58.10;;;;;;5139499;23;20022;-51
2023/02/23 11:35:21;;;;;;;1.52;1.00;;;25.20;57.80;;;;;;5137904;23;20097;-49
2023/02/23 11:37:43;;;;;;;4.45;1.50;;;25.20;57.80;;;;;;5138241;23;20020;-48
2023/02/23 11:40:27;;;;;;;2.05;1.17;;;25.30;58.10;;;;;;5141279;23;20017;-48
2023/02/23 11:42:57;;;;;;;3.63;1.20;;;25.30;58.30;;;;;;5141013;23;20216;-47
2023/02/23 11:45:21;;;;;;;2.35;1.15;;;25.40;58.50;;;;;;5141102;23;20316;-49
2023/02/23 11:47:50;;;;;;;3.05;1.20;;;25.40;58.60;;;;;;5132505;23;20547;-47
2023/02/23 11:50:31;;;;;;;2.08;1.00;;;25.40;58.70;;;;;;5139324;23;20092;-48
2023/02/23 11:53:06;;;;;;;2.58;1.02;;;25.50;58.80;;;;;;5138245;23;20044;-48
2023/02/23 11:55:30;;;;;;;1.90;1.10;;;25.50;58.80;;;;;;5140758;23;20020;-50
2023/02/23 11:57:55;;;;;;;2.35;1.23;;;25.60;58.90;;;;;;5141022;23;20301;-51
2023/02/23 12:00:27;;;;;;;3.08;1.40;;;25.60;58.90;;;;;;5132975;23;20494;-47
2023/02/23 12:02:57;;;;;;;3.47;1.33;;;25.60;58.90;;;;;;5141461;23;20086;-47
2023/02/23 12:05:26;;;;;;;2.58;1.40;;;25.60;58.80;;;;;;5140728;23;20347;-48
2023/02/23 12:08:00;;;;;;;2.33;1.40;;;25.70;58.80;;;;;;5131853;23;20021;-49
2023/02/23 12:10:32;;;;;;;1.73;1.00;;;25.70;58.70;;;;;;5131804;23;20529;-48
2023/02/23 12:13:00;;;;;;;2.42;1.40;;;25.70;58.70;;;;;;5137961;23;20040;-45
2023/02/23 12:15:48;;;;;;;2.60;1.45;;;25.80;58.90;;;;;;5138327;23;20021;-45
2023/02/23 12:18:19;;;;;;;2.88;1.10;;;25.80;58.80;;;;;;5137991;23;20012;-46
2023/02/23 12:20:44;;;;;;;2.92;1.10;;;25.80;58.70;;;;;;5140383;23;20016;-44
2023/02/23 12:23:13;;;;;;;2.47;1.00;;;25.80;58.70;;;;;;5140231;23;20474;-47
2023/02/23 12:25:43;;;;;;;2.80;1.33;;;25.90;58.70;;;;;;5139150;23;20028;-50
2023/02/23 12:28:37;;;;;;;2.55;1.30;;;25.80;58.70;;;;;;5131350;23;20361;-48
2023/02/23 12:31:29;;;;;;;2.58;0.95;;;25.90;58.70;;;;;;5129992;23;20012;-47
2023/02/23 12:34:11;;;;;;;1.92;0.95;;;25.90;58.70;;;;;;5137356;23;20027;-48
2023/02/23 12:36:55;;;;;;;2.65;0.98;;;25.90;58.70;;;;;;5129797;23;20394;-49
2023/02/23 12:39:35;;;;;;;1.67;0.90;;;25.90;58.60;;;;;;5138915;23;20509;-49
2023/02/23 12:42:12;;;;;;;1.88;1.00;;;26.00;58.70;;;;;;5140261;23;20017;-46
2023/02/23 12:45:05;;;;;;;2.05;1.20;;;26.00;58.70;;;;;;5139522;23;20016;-48
2023/02/23 12:47:45;;;;;;;1.25;0.70;;;26.00;58.70;;;;;;5128952;23;20088;-49
2023/02/23 12:50:14;;;;;;;2.90;1.27;;;26.00;58.70;;;;;;5141334;23;20382;-50
2023/02/23 12:52:43;;;;;;;2.42;1.27;;;26.00;58.60;;;;;;5138915;23;20036;-46
2023/02/23 12:55:11;;;;;;;1.30;0.70;;;26.00;58.70;;;;;;5138609;23;20116;-45
2023/02/23 12:58:17;;;;;;;1.38;0.70;;;26.00;58.60;;;;;;5138513;23;20039;-47
2023/02/23 13:00:58;;;;;;;1.60;0.80;;;26.00;58.60;;;;;;5131577;23;20349;-55
2023/02/23 13:03:30;;;;;;;17.50;2.10;;;26.00;58.40;;;;;;5120249;23;20295;-56
2023/02/23 13:06:18;;;;;;;5.13;1.02;;;26.00;58.30;;;;;;5127597;23;20567;-57
2023/02/23 13:08:58;;;;;;;6.75;1.92;;;26.00;58.30;;;;;;5133947;23;20028;-50
2023/02/23 13:11:44;;;;;;;7.82;1.38;;;26.00;58.40;;;;;;5136135;23;20059;-51
2023/02/23 13:14:32;;;;;;;5.72;1.48;;;26.00;58.40;;;;;;5135754;23;20020;-50
2023/02/23 13:17:05;;;;;;;2.22;0.95;;;26.00;58.40;;;;;;5125727;23;20502;-50
2023/02/23 13:19:48;;;;;;;3.88;1.02;;;26.00;58.40;;;;;;5135548;23;20095;-48
2023/02/23 13:22:35;;;;;;;2.63;1.10;;;25.90;58.30;;;;;;5137691;23;20027;-52
2023/02/23 13:25:01;;;;;;;2.42;0.70;;;25.90;58.30;;;;;;5137532;23;20048;-57
2023/02/23 13:27:37;;;;;;;3.92;0.95;;;26.00;58.40;;;;;;5136569;23;20017;-55
2023/02/23 13:30:01;;;;;;;2.55;0.77;;;26.00;58.40;;;;;;5138375;23;20374;-52
2023/02/23 13:32:31;;;;;;;3.92;0.68;;;25.90;58.30;;;;;;5139473;23;20116;-55
2023/02/23 13:35:06;;;;;;;3.80;0.90;;;25.90;58.30;;;;;;5139330;23;20028;-53
2023/02/23 13:37:42;;;;;;;5.18;1.10;;;25.90;58.40;;;;;;5129904;23;20024;-52
2023/02/23 13:40:19;;;;;;;3.85;0.93;;;25.90;58.30;;;;;;5130386;23;20477;-51
2023/02/23 13:43:12;;;;;;;6.00;0.98;;;25.90;58.30;;;;;;5129144;23;20043;-48
2023/02/23 13:46:06;;;;;;;5.32;1.50;;;25.90;58.30;;;;;;5139478;23;20618;-46
2023/02/23 13:48:31;;;;;;;7.15;1.15;;;25.80;58.40;;;;;;5138464;23;20024;-50
2023/02/23 13:51:20;;;;;;;3.65;0.80;;;25.70;58.70;;;;;;5137081;23;20447;-48
2023/02/23 13:53:58;;;;;;;3.70;0.70;;;25.60;59.00;;;;;;5136889;23;20017;-50
2023/02/23 13:56:24;;;;;;;3.05;0.75;;;25.60;59.20;;;;;;5137778;23;20716;-49
2023/02/23 13:59:08;;;;;;;2.10;0.68;;;25.50;59.20;;;;;;5136931;23;20398;-45
2023/02/23 14:01:30;;;;;;;;;;;25.50;59.40;;;;;;5139676;23;20401;-55
2023/02/23 14:03:59;;;;;;;3.80;0.82;;;25.50;59.50;;;;;;5140642;23;19912;-55
2023/02/23 14:06:25;;;;;;;4.30;1.23;;;25.40;59.40;;;;;;5140438;23;20013;-50
2023/02/23 14:08:59;;;;;;;4.13;0.80;;;25.40;59.50;;;;;;5141037;23;20033;-46
2023/02/23 14:11:34;;;;;;;1.70;0.63;;;25.40;59.60;;;;;;5132126;23;20078;-47
2023/02/23 14:14:02;;;;;;;0.75;0.50;;;25.40;60.30;;;;;;5142204;23;20484;-47